Shokyu Maru — JG5288 — position and weather

sailwx.info

Track history (hours):
 
Tides and Currents Weather Stations Pressure Air Temp Water Temp Dewpoint Dewpoint Depression Visibility Wind Speed Wind Dir Waves Ship Positions

Shokyu Maru

Last reported at 2017-Jun-27 11:59 UTC. Time now 2017-Jun-27 12:24 UTC.
Position N 35°36' E 139°55'.

Length 91 m; draft 5.2 m.

Type: Ship. MMSI: 431000253.

Date/timePositionNaut miles runAvg speedWind from/ knotsBaromVisibWave heightAir tempDewpointWater temp
2017-Jun-27 11:59N 35°36' E 139°55'0 0.0
2017-Jun-27 11:27N 35°36' E 139°55'2 5.3
2017-Jun-27 11:00N 35°34' E 139°57'510.1
2017-Jun-27 10:29N 35°30' E 140°01'0 0.1
2017-Jun-27 06:07N 35°30' E 140°02'0 2.5
2017-Jun-27 06:00N 35°30' E 140°01'3 5.6
2017-Jun-27 05:30N 35°32' E 139°59'4 8.0
2017-Jun-27 05:00N 35°34' E 139°55'0 0.2
2017-Jun-27 04:30N 35°34' E 139°55'1 1.1
2017-Jun-27 04:00N 35°35' E 139°55'4 7.1
2017-Jun-27 03:30N 35°37' E 139°58'3 0.5
2017-Jun-26 21:44N 35°40' E 139°57'2 7.9
2017-Jun-26 21:30N 35°39' E 139°58'4 7.6
2017-Jun-26 21:00N 35°36' E 139°55'0 0.4
2017-Jun-26 20:28N 35°36' E 139°55'0 0.0
2017-Jun-26 19:55N 35°36' E 139°55'0 0.1
2017-Jun-26 19:28N 35°36' E 139°55'0 0.1
2017-Jun-26 18:58N 35°36' E 139°55'0 0.0
2017-Jun-26 18:28N 35°36' E 139°55'0 0.0
2017-Jun-26 17:58N 35°36' E 139°55'0 0.0
2017-Jun-26 17:28N 35°36' E 139°55'0 0.0
2017-Jun-26 16:52N 35°36' E 139°55'0 0.0
2017-Jun-26 16:28N 35°36' E 139°55'0 0.0
2017-Jun-26 15:58N 35°36' E 139°55'0 0.0
2017-Jun-26 15:28N 35°36' E 139°55'0 0.0
2017-Jun-26 14:58N 35°36' E 139°55'0 0.0
2017-Jun-26 14:28N 35°36' E 139°55'0 0.0
2017-Jun-26 13:28N 35°36' E 139°55'0 0.0
2017-Jun-26 12:55N 35°36' E 139°55'0 0.0
2017-Jun-26 12:28N 35°36' E 139°55'0 0.1
2017-Jun-26 11:55N 35°36' E 139°55'3 8.5
2017-Jun-26 11:31N 35°34' E 139°59'4 8.3
2017-Jun-26 11:00N 35°32' E 140°03'0 0.3
2017-Jun-26 10:30N 35°32' E 140°03'0 0.0
2017-Jun-26 06:57N 35°32' E 140°03'0 0.0
2017-Jun-26 06:15N 35°32' E 140°03'0 0.0
2017-Jun-26 05:45N 35°32' E 140°03'0 0.0
2017-Jun-26 05:30N 35°32' E 140°03'2 3.2
2017-Jun-26 05:00N 35°33' E 140°02'1 2.4
2017-Jun-26 04:30N 35°33' E 140°00'5 9.0
2017-Jun-26 04:00N 35°35' E 139°55'3 6.1
2017-Jun-26 03:31N 35°38' E 139°58'3 0.6
2017-Jun-25 22:09N 35°41' E 139°56'0 0.4
2017-Jun-25 21:44N 35°40' E 139°57'2 8.0
2017-Jun-25 21:30N 35°39' E 139°58'4 8.2
2017-Jun-25 21:00N 35°35' E 139°56'0 0.2
2017-Jun-25 20:20N 35°36' E 139°55'0 0.1
2017-Jun-25 19:59N 35°36' E 139°55'0 0.0
2017-Jun-25 19:29N 35°36' E 139°55'0 0.0
2017-Jun-25 18:59N 35°36' E 139°55'0 0.0
2017-Jun-25 18:26N 35°36' E 139°55'0 0.1
2017-Jun-25 17:59N 35°35' E 139°55'0 0.1
2017-Jun-25 17:26N 35°35' E 139°55'0 0.0
2017-Jun-25 16:59N 35°35' E 139°55'0 0.0
2017-Jun-25 16:26N 35°35' E 139°55'0 0.0
2017-Jun-25 15:38N 35°35' E 139°55'0 0.0
2017-Jun-25 15:05N 35°35' E 139°55'0 0.0
2017-Jun-25 13:59N 35°35' E 139°55'0 0.1
2017-Jun-25 13:02N 35°36' E 139°55'0 0.2
2017-Jun-25 13:00N 35°36' E 139°55'4 7.1
2017-Jun-25 12:30N 35°33' E 139°52'5 9.8
2017-Jun-25 12:00N 35°30' E 139°47'1 2.7
2017-Jun-25 11:29N 35°31' E 139°46'0 0.0
2017-Jun-25 10:59N 35°31' E 139°46'0 0.0
2017-Jun-25 10:29N 35°31' E 139°46'0 0.0
2017-Jun-25 09:59N 35°31' E 139°46'0 0.0
2017-Jun-25 09:29N 35°31' E 139°46'0 0.0
2017-Jun-25 08:59N 35°31' E 139°46'0 0.0
2017-Jun-25 08:29N 35°31' E 139°46'0 0.0
2017-Jun-25 07:59N 35°31' E 139°46'0 0.0
2017-Jun-25 07:29N 35°31' E 139°46'0 0.0
2017-Jun-25 06:59N 35°31' E 139°46'0 0.0
2017-Jun-25 06:29N 35°31' E 139°46'0 0.0
2017-Jun-25 05:59N 35°31' E 139°46'3 6.8
2017-Jun-25 05:30N 35°29' E 139°43'2 4.9
2017-Jun-25 05:00N 35°27' E 139°44'3 6.0
2017-Jun-25 04:30N 35°29' E 139°47'510.3
2017-Jun-25 04:00N 35°33' E 139°51'510.6
2017-Jun-25 03:30N 35°36' E 139°56'4 7.8
2017-Jun-25 03:00N 35°40' E 139°57'1 0.1
2017-Jun-24 21:43N 35°40' E 139°56'1 7.2
2017-Jun-24 21:30N 35°39' E 139°58'4 7.9
2017-Jun-24 21:00N 35°36' E 139°56'0 0.7
2017-Jun-24 20:30N 35°36' E 139°55'0 0.0
2017-Jun-24 20:00N 35°36' E 139°55'0 0.0
2017-Jun-24 19:27N 35°36' E 139°55'0 0.0
2017-Jun-24 19:00N 35°36' E 139°55'0 0.0
2017-Jun-24 18:27N 35°36' E 139°55'0 0.0
2017-Jun-24 17:51N 35°36' E 139°55'0 0.0
2017-Jun-24 17:27N 35°36' E 139°55'0 0.0
2017-Jun-24 16:45N 35°36' E 139°55'0 0.1
2017-Jun-24 16:24N 35°36' E 139°55'0 0.1
2017-Jun-24 15:57N 35°36' E 139°55'0 0.0
2017-Jun-24 15:30N 35°36' E 139°55'0 0.0
2017-Jun-24 14:57N 35°36' E 139°55'3 2.8
2017-Jun-24 14:00N 35°34' E 139°53'510.0
2017-Jun-24 13:30N 35°30' E 139°49'5 9.8
2017-Jun-24 13:00N 35°27' E 139°45'5 9.2
2017-Jun-24 12:30N 35°23' E 139°41'1 2.5
2017-Jun-24 11:59N 35°24' E 139°40'0 0.0
2017-Jun-24 11:29N 35°24' E 139°40'0 0.0
2017-Jun-24 10:59N 35°24' E 139°40'0 0.0
2017-Jun-24 10:29N 35°24' E 139°40'0 0.0
2017-Jun-24 09:59N 35°24' E 139°40'0 0.0
2017-Jun-24 09:29N 35°24' E 139°40'0 0.0
2017-Jun-24 08:59N 35°24' E 139°40'0 0.0
2017-Jun-24 08:29N 35°24' E 139°40'0 0.0
2017-Jun-24 07:59N 35°24' E 139°40'0 0.0
2017-Jun-24 07:29N 35°24' E 139°40'0 0.0
2017-Jun-24 06:59N 35°24' E 139°40'0 0.2
2017-Jun-24 06:30N 35°24' E 139°39'3 7.0
2017-Jun-24 06:00N 35°25' E 139°44'510.2
2017-Jun-24 05:30N 35°28' E 139°49'510.2
2017-Jun-24 05:00N 35°32' E 139°53'510.4
2017-Jun-24 04:30N 35°36' E 139°57'4 8.3
2017-Jun-24 04:00N 35°40' E 139°57'0 0.1
2017-Jun-23 21:42N 35°40' E 139°57'2 7.8
2017-Jun-23 21:30N 35°39' E 139°58'3 2.5
2017-Jun-23 20:27N 35°37' E 139°58'0 0.0
2017-Jun-23 18:39N 35°37' E 139°58'0 0.1
2017-Jun-23 18:18N 35°37' E 139°58'0 0.0
2017-Jun-23 17:51N 35°37' E 139°58'0 0.0
2017-Jun-23 17:27N 35°37' E 139°58'0 0.0
2017-Jun-23 16:57N 35°37' E 139°58'0 0.0
2017-Jun-23 16:15N 35°37' E 139°58'0 0.0
2017-Jun-23 16:00N 35°37' E 139°58'0 0.0
2017-Jun-23 15:30N 35°37' E 139°58'0 0.0
2017-Jun-23 15:00N 35°37' E 139°58'0 0.0
2017-Jun-23 13:10N 35°37' E 139°58'0 0.1
2017-Jun-23 13:00N 35°37' E 139°58'4 8.4
2017-Jun-23 12:30N 35°33' E 140°00'3 4.0
2017-Jun-23 11:52N 35°31' E 140°02'0 0.0
2017-Jun-23 11:28N 35°31' E 140°02'0 0.0
2017-Jun-23 10:43N 35°31' E 140°02'0 0.0
2017-Jun-23 10:28N 35°31' E 140°02'0 0.0
2017-Jun-23 09:58N 35°31' E 140°02'0 0.0
2017-Jun-23 09:28N 35°31' E 140°02'0 0.0
2017-Jun-23 08:58N 35°31' E 140°02'0 0.0
2017-Jun-23 08:13N 35°31' E 140°02'0 0.0
2017-Jun-23 07:58N 35°31' E 140°02'0 0.0
2017-Jun-23 07:28N 35°31' E 140°02'0 0.0
2017-Jun-23 06:49N 35°31' E 140°02'0 0.0
2017-Jun-23 06:07N 35°31' E 140°02'0 1.0
2017-Jun-23 06:00N 35°31' E 140°02'5 9.8
2017-Jun-23 05:30N 35°30' E 139°56'611.1
2017-Jun-23 05:00N 35°28' E 139°50'611.1
2017-Jun-23 04:30N 35°25' E 139°45'4 8.3
2017-Jun-23 04:00N 35°24' E 139°39'0 0.2
2017-Jun-23 03:28N 35°24' E 139°40'0 0.0
2017-Jun-23 02:58N 35°24' E 139°40'0 0.0
2017-Jun-23 02:28N 35°24' E 139°40'0 0.0
2017-Jun-23 01:58N 35°24' E 139°40'0 0.0
2017-Jun-23 01:28N 35°24' E 139°40'0 0.0
2017-Jun-23 00:58N 35°24' E 139°40'0 0.0
2017-Jun-23 00:28N 35°24' E 139°40'0 0.0
2017-Jun-22 23:58N 35°24' E 139°40'0 0.0
2017-Jun-22 23:28N 35°24' E 139°40'1 1.7
2017-Jun-22 23:01N 35°24' E 139°40'1 2.3
2017-Jun-22 22:30N 35°23' E 139°40'0 0.0
2017-Jun-22 22:00N 35°23' E 139°40'0 0.0
2017-Jun-22 21:30N 35°23' E 139°40'0 0.0
2017-Jun-22 21:00N 35°23' E 139°40'0 0.0
2017-Jun-22 20:30N 35°23' E 139°40'0 0.0
2017-Jun-22 20:00N 35°23' E 139°40'0 0.0
2017-Jun-22 19:30N 35°23' E 139°40'0 0.0
2017-Jun-22 19:00N 35°23' E 139°40'0 0.0
2017-Jun-22 18:30N 35°23' E 139°40'0 0.1
2017-Jun-22 18:00N 35°23' E 139°40'0 0.1
2017-Jun-22 17:30N 35°23' E 139°40'0 0.0
2017-Jun-22 17:00N 35°23' E 139°40'0 0.0
2017-Jun-22 16:30N 35°23' E 139°40'0 0.1
2017-Jun-22 16:00N 35°23' E 139°40'0 0.1
2017-Jun-22 15:30N 35°23' E 139°40'0 0.1
2017-Jun-22 15:00N 35°23' E 139°40'0 0.1
2017-Jun-22 14:30N 35°23' E 139°40'0 0.0
2017-Jun-22 13:30N 35°23' E 139°40'0 0.0
2017-Jun-22 13:00N 35°23' E 139°40'0 0.1
2017-Jun-22 12:30N 35°23' E 139°40'0 0.0
2017-Jun-22 12:00N 35°23' E 139°40'0 0.1
2017-Jun-22 11:30N 35°23' E 139°40'4 8.7
2017-Jun-22 11:00N 35°26' E 139°44'510.4
2017-Jun-22 10:31N 35°30' E 139°48'2 3.6
2017-Jun-22 09:58N 35°31' E 139°46'0 0.0
2017-Jun-22 09:28N 35°31' E 139°46'0 0.0
2017-Jun-22 08:58N 35°31' E 139°46'0 0.0
2017-Jun-22 08:28N 35°31' E 139°46'0 0.0
2017-Jun-22 07:58N 35°31' E 139°46'0 0.0
2017-Jun-22 07:25N 35°31' E 139°46'0 0.0
2017-Jun-22 06:58N 35°31' E 139°46'0 0.0
2017-Jun-22 06:28N 35°31' E 139°46'0 0.0
2017-Jun-22 05:58N 35°31' E 139°46'0 0.0
2017-Jun-22 05:28N 35°31' E 139°46'0 0.0
2017-Jun-22 04:58N 35°31' E 139°46'0 0.0
2017-Jun-22 04:28N 35°31' E 139°46'0 0.0
2017-Jun-22 03:58N 35°31' E 139°46'1 2.4
2017-Jun-22 03:30N 35°30' E 139°45'4 7.3
2017-Jun-22 03:00N 35°27' E 139°43'3 5.9
2017-Jun-22 02:30N 35°28' E 139°47'510.0
2017-Jun-22 02:00N 35°30' E 139°52'611.2
2017-Jun-22 01:30N 35°35' E 139°56'510.6
2017-Jun-22 01:00N 35°39' E 139°59'1 1.9
2017-Jun-22 00:22N 35°41' E 139°59'0 0.0
2017-Jun-21 23:58N 35°41' E 139°59'0 0.0
2017-Jun-21 23:28N 35°41' E 139°59'0 0.0
2017-Jun-21 22:58N 35°41' E 139°59'0 0.0
2017-Jun-21 22:28N 35°41' E 139°59'0 0.0
2017-Jun-21 21:52N 35°41' E 139°59'0 0.0
2017-Jun-21 21:28N 35°41' E 139°59'0 0.0
2017-Jun-21 20:58N 35°41' E 139°59'0 0.0
2017-Jun-21 20:28N 35°41' E 139°59'0 0.0
2017-Jun-21 19:52N 35°41' E 139°59'0 0.0
2017-Jun-21 19:22N 35°41' E 139°59'0 0.0
2017-Jun-21 18:58N 35°41' E 139°59'0 0.0
2017-Jun-21 18:28N 35°41' E 139°59'0 0.0
2017-Jun-21 17:52N 35°41' E 139°59'0 0.0
2017-Jun-21 17:28N 35°41' E 139°59'0 0.0
2017-Jun-21 16:46N 35°41' E 139°59'0 0.0
2017-Jun-21 16:28N 35°41' E 139°59'0 0.0
2017-Jun-21 15:52N 35°41' E 139°59'0 0.0
2017-Jun-21 15:28N 35°41' E 139°59'0 0.0
2017-Jun-21 14:46N 35°41' E 139°59'0 0.0
2017-Jun-21 14:22N 35°41' E 139°59'0 0.0
2017-Jun-21 12:58N 35°41' E 139°59'0 0.0
2017-Jun-21 12:28N 35°41' E 139°59'0 0.0
2017-Jun-21 11:04N 35°41' E 139°59'0 0.0
2017-Jun-21 10:58N 35°41' E 139°59'0 0.0
2017-Jun-21 10:28N 35°41' E 139°59'0 0.0
2017-Jun-21 08:58N 35°41' E 139°59'0 0.0
2017-Jun-21 08:04N 35°41' E 139°59'0 0.0
2017-Jun-21 07:34N 35°41' E 139°59'0 0.0
2017-Jun-21 06:37N 35°41' E 139°59'0 0.0
2017-Jun-21 05:22N 35°41' E 139°59'0 0.4
2017-Jun-21 04:51N 35°41' E 139°59'4 9.2
2017-Jun-21 04:27N 35°37' E 139°59'3 6.8
2017-Jun-21 04:00N 35°40' E 139°57'0 0.0
2017-Jun-20 21:35N 35°40' E 139°57'1 9.1
2017-Jun-20 21:29N 35°39' E 139°58'4 6.9
2017-Jun-20 20:56N 35°36' E 139°55'0 0.5
2017-Jun-20 20:28N 35°36' E 139°55'0 0.0
2017-Jun-20 20:00N 35°36' E 139°55'0 0.0
2017-Jun-20 19:30N 35°36' E 139°55'0 0.0
2017-Jun-20 19:00N 35°36' E 139°55'0 0.0
2017-Jun-20 18:27N 35°36' E 139°55'0 0.0
2017-Jun-20 18:00N 35°36' E 139°55'0 0.0
2017-Jun-20 17:29N 35°36' E 139°55'0 0.0
2017-Jun-20 16:57N 35°36' E 139°55'0 0.0
2017-Jun-20 16:29N 35°36' E 139°55'0 0.0
2017-Jun-20 16:00N 35°36' E 139°55'0 0.0
2017-Jun-20 15:30N 35°36' E 139°55'0 0.0
2017-Jun-20 14:58N 35°36' E 139°55'0 0.0
2017-Jun-20 14:28N 35°36' E 139°55'0 0.0
2017-Jun-20 13:30N 35°36' E 139°55'4 8.1
2017-Jun-20 13:00N 35°33' E 139°52'611.1
2017-Jun-20 12:30N 35°29' E 139°48'611.1
2017-Jun-20 12:00N 35°25' E 139°43'3 5.7
2017-Jun-20 11:30N 35°24' E 139°40'0 0.1
2017-Jun-20 10:58N 35°24' E 139°40'0 0.0
2017-Jun-20 10:28N 35°24' E 139°40'0 0.0
2017-Jun-20 09:58N 35°24' E 139°40'0 0.0
2017-Jun-20 09:28N 35°24' E 139°40'0 0.0
2017-Jun-20 08:58N 35°24' E 139°40'0 0.0
2017-Jun-20 08:28N 35°24' E 139°40'0 0.0
2017-Jun-20 07:58N 35°24' E 139°40'0 0.0
2017-Jun-20 07:28N 35°24' E 139°40'0 0.0
2017-Jun-20 06:58N 35°24' E 139°40'0 0.0
2017-Jun-20 06:28N 35°24' E 139°40'0 0.0
2017-Jun-20 05:58N 35°24' E 139°40'1 1.2
2017-Jun-20 05:31N 35°24' E 139°40'4 8.6
2017-Jun-20 05:00N 35°26' E 139°45'510.4
2017-Jun-20 04:30N 35°29' E 139°50'510.2
2017-Jun-20 04:00N 35°33' E 139°54'610.5
2017-Jun-20 03:28N 35°37' E 139°58'3 0.6
2017-Jun-19 21:41N 35°40' E 139°57'2 7.5
2017-Jun-19 21:26N 35°39' E 139°58'3 8.1
2017-Jun-19 21:01N 35°36' E 139°56'0 0.3
2017-Jun-19 19:53N 35°36' E 139°55'0 0.0
2017-Jun-19 19:29N 35°36' E 139°55'0 0.0
2017-Jun-19 18:59N 35°36' E 139°55'0 0.0
2017-Jun-19 18:29N 35°36' E 139°55'0 0.1
2017-Jun-19 17:59N 35°36' E 139°55'0 0.0
2017-Jun-19 17:29N 35°36' E 139°55'0 0.0
2017-Jun-19 16:59N 35°36' E 139°55'0 0.0
2017-Jun-19 16:29N 35°36' E 139°55'0 0.0
2017-Jun-19 15:59N 35°36' E 139°55'0 0.0
2017-Jun-19 15:29N 35°36' E 139°55'0 0.0
2017-Jun-19 14:59N 35°36' E 139°55'0 0.1
2017-Jun-19 14:29N 35°36' E 139°55'0 0.0
2017-Jun-19 13:29N 35°36' E 139°55'0 0.0
2017-Jun-19 12:59N 35°36' E 139°55'0 0.0
2017-Jun-19 11:47N 35°36' E 139°55'0 0.2
2017-Jun-19 11:30N 35°36' E 139°55'4 7.3
2017-Jun-19 11:00N 35°33' E 139°58'4 1.7
2017-Jun-19 08:33N 35°31' E 140°02'0 0.0
2017-Jun-19 08:21N 35°31' E 140°02'0 0.0
2017-Jun-19 06:33N 35°31' E 140°02'0 0.0
2017-Jun-19 04:21N 35°31' E 140°02'1 2.0
2017-Jun-19 04:00N 35°31' E 140°02'1 2.9
2017-Jun-19 03:30N 35°32' E 140°01'2 3.4
2017-Jun-19 03:00N 35°34' E 140°00'4 8.5
2017-Jun-19 02:30N 35°38' E 139°59'0 0.1
2017-Jun-18 22:19N 35°38' E 139°58'3 9.8
2017-Jun-18 22:00N 35°36' E 139°55'1 0.3
2017-Jun-18 19:54N 35°36' E 139°55'0 0.0
2017-Jun-18 19:30N 35°36' E 139°55'0 0.0
2017-Jun-18 18:45N 35°36' E 139°55'0 0.0
2017-Jun-18 18:24N 35°36' E 139°55'0 0.0
2017-Jun-18 18:00N 35°36' E 139°55'0 0.0
2017-Jun-18 17:30N 35°36' E 139°55'0 0.0
2017-Jun-18 17:00N 35°36' E 139°55'0 0.0
2017-Jun-18 16:27N 35°36' E 139°55'0 0.0
2017-Jun-18 15:48N 35°36' E 139°55'0 0.0
2017-Jun-18 15:27N 35°36' E 139°55'0 0.0
2017-Jun-18 14:00N 35°36' E 139°55'0 0.1
2017-Jun-18 13:30N 35°36' E 139°55'0 0.0
2017-Jun-18 13:00N 35°36' E 139°55'0 0.0
2017-Jun-18 12:30N 35°36' E 139°55'0 0.0
2017-Jun-18 12:00N 35°36' E 139°55'0 0.0
2017-Jun-18 07:48N 35°36' E 139°55'0 0.0
2017-Jun-18 07:30N 35°36' E 139°55'0 0.1
2017-Jun-18 06:57N 35°36' E 139°55'0 0.1
2017-Jun-18 06:24N 35°36' E 139°55'0 0.1
2017-Jun-18 06:00N 35°36' E 139°55'1 2.7
2017-Jun-18 05:30N 35°35' E 139°54'5 9.3
2017-Jun-18 05:00N 35°31' E 139°50'4 8.8
2017-Jun-18 04:30N 35°28' E 139°46'5 9.3
2017-Jun-18 04:00N 35°24' E 139°42'2 4.2
2017-Jun-18 03:28N 35°24' E 139°40'0 0.0
2017-Jun-18 02:58N 35°24' E 139°40'0 0.0
2017-Jun-18 02:28N 35°24' E 139°40'0 0.0
2017-Jun-18 01:58N 35°24' E 139°40'0 0.0
2017-Jun-18 01:28N 35°24' E 139°40'0 0.0
2017-Jun-18 00:58N 35°24' E 139°40'0 0.0
2017-Jun-18 00:28N 35°24' E 139°40'0 0.0
2017-Jun-17 23:58N 35°24' E 139°40'1 1.6
2017-Jun-17 23:30N 35°24' E 139°40'1 2.8
2017-Jun-17 23:00N 35°23' E 139°41'4 7.1
2017-Jun-17 22:30N 35°27' E 139°41'2 4.6
2017-Jun-17 21:59N 35°29' E 139°39'0 0.0
2017-Jun-17 21:29N 35°29' E 139°39'0 0.0
2017-Jun-17 20:59N 35°29' E 139°39'0 0.0
2017-Jun-17 20:29N 35°29' E 139°39'0 0.0
2017-Jun-17 19:59N 35°29' E 139°39'0 0.0
2017-Jun-17 19:29N 35°29' E 139°39'0 0.0
2017-Jun-17 18:59N 35°29' E 139°39'0 0.0
2017-Jun-17 18:29N 35°29' E 139°39'0 0.0
2017-Jun-17 17:59N 35°29' E 139°39'0 0.0
2017-Jun-17 17:29N 35°29' E 139°39'0 0.0
2017-Jun-17 16:59N 35°29' E 139°39'0 0.0
2017-Jun-17 16:29N 35°29' E 139°39'0 0.0
2017-Jun-17 15:59N 35°29' E 139°39'0 0.0
2017-Jun-17 15:29N 35°29' E 139°39'0 0.0
2017-Jun-17 15:00N 35°29' E 139°39'0 0.0
2017-Jun-17 14:00N 35°29' E 139°39'0 0.0
2017-Jun-17 13:30N 35°29' E 139°39'0 0.0
2017-Jun-17 12:59N 35°29' E 139°39'0 0.0
2017-Jun-17 12:29N 35°29' E 139°39'0 0.0
2017-Jun-17 11:59N 35°29' E 139°39'  
Track history (hours):
 
Tides and Currents Weather Stations Pressure Air Temp Water Temp Dewpoint Dewpoint Depression Visibility Wind Speed Wind Dir Waves Ship Positions

Shokyu Maru

Last reported at 2017-Jun-27 11:59 UTC. Time now 2017-Jun-27 12:24 UTC.
Position N 35°36' E 139°55'.

Length 91 m; draft 5.2 m.

Type: Ship. MMSI: 431000253.

Date/timePositionNaut miles runAvg speedWind from/ knotsBaromVisibWave heightAir tempDewpointWater temp
2017-Jun-27 11:59N 35°36' E 139°55'0 0.0
2017-Jun-27 11:27N 35°36' E 139°55'2 5.3
2017-Jun-27 11:00N 35°34' E 139°57'510.1
2017-Jun-27 10:29N 35°30' E 140°01'0 0.1
2017-Jun-27 06:07N 35°30' E 140°02'0 2.5
2017-Jun-27 06:00N 35°30' E 140°01'3 5.6
2017-Jun-27 05:30N 35°32' E 139°59'4 8.0
2017-Jun-27 05:00N 35°34' E 139°55'0 0.2
2017-Jun-27 04:30N 35°34' E 139°55'1 1.1
2017-Jun-27 04:00N 35°35' E 139°55'4 7.1
2017-Jun-27 03:30N 35°37' E 139°58'3 0.5
2017-Jun-26 21:44N 35°40' E 139°57'2 7.9
2017-Jun-26 21:30N 35°39' E 139°58'4 7.6
2017-Jun-26 21:00N 35°36' E 139°55'0 0.4
2017-Jun-26 20:28N 35°36' E 139°55'0 0.0
2017-Jun-26 19:55N 35°36' E 139°55'0 0.1
2017-Jun-26 19:28N 35°36' E 139°55'0 0.1
2017-Jun-26 18:58N 35°36' E 139°55'0 0.0
2017-Jun-26 18:28N 35°36' E 139°55'0 0.0
2017-Jun-26 17:58N 35°36' E 139°55'0 0.0
2017-Jun-26 17:28N 35°36' E 139°55'0 0.0
2017-Jun-26 16:52N 35°36' E 139°55'0 0.0
2017-Jun-26 16:28N 35°36' E 139°55'0 0.0
2017-Jun-26 15:58N 35°36' E 139°55'0 0.0
2017-Jun-26 15:28N 35°36' E 139°55'0 0.0
2017-Jun-26 14:58N 35°36' E 139°55'0 0.0
2017-Jun-26 14:28N 35°36' E 139°55'0 0.0
2017-Jun-26 13:28N 35°36' E 139°55'0 0.0
2017-Jun-26 12:55N 35°36' E 139°55'0 0.0
2017-Jun-26 12:28N 35°36' E 139°55'0 0.1
2017-Jun-26 11:55N 35°36' E 139°55'3 8.5
2017-Jun-26 11:31N 35°34' E 139°59'4 8.3
2017-Jun-26 11:00N 35°32' E 140°03'0 0.3
2017-Jun-26 10:30N 35°32' E 140°03'0 0.0
2017-Jun-26 06:57N 35°32' E 140°03'0 0.0
2017-Jun-26 06:15N 35°32' E 140°03'0 0.0
2017-Jun-26 05:45N 35°32' E 140°03'0 0.0
2017-Jun-26 05:30N 35°32' E 140°03'2 3.2
2017-Jun-26 05:00N 35°33' E 140°02'1 2.4
2017-Jun-26 04:30N 35°33' E 140°00'5 9.0
2017-Jun-26 04:00N 35°35' E 139°55'3 6.1
2017-Jun-26 03:31N 35°38' E 139°58'3 0.6
2017-Jun-25 22:09N 35°41' E 139°56'0 0.4
2017-Jun-25 21:44N 35°40' E 139°57'2 8.0
2017-Jun-25 21:30N 35°39' E 139°58'4 8.2
2017-Jun-25 21:00N 35°35' E 139°56'0 0.2
2017-Jun-25 20:20N 35°36' E 139°55'0 0.1
2017-Jun-25 19:59N 35°36' E 139°55'0 0.0
2017-Jun-25 19:29N 35°36' E 139°55'0 0.0
2017-Jun-25 18:59N 35°36' E 139°55'0 0.0
2017-Jun-25 18:26N 35°36' E 139°55'0 0.1
2017-Jun-25 17:59N 35°35' E 139°55'0 0.1
2017-Jun-25 17:26N 35°35' E 139°55'0 0.0
2017-Jun-25 16:59N 35°35' E 139°55'0 0.0
2017-Jun-25 16:26N 35°35' E 139°55'0 0.0
2017-Jun-25 15:38N 35°35' E 139°55'0 0.0
2017-Jun-25 15:05N 35°35' E 139°55'0 0.0
2017-Jun-25 13:59N 35°35' E 139°55'0 0.1
2017-Jun-25 13:02N 35°36' E 139°55'0 0.2
2017-Jun-25 13:00N 35°36' E 139°55'4 7.1
2017-Jun-25 12:30N 35°33' E 139°52'5 9.8
2017-Jun-25 12:00N 35°30' E 139°47'1 2.7
2017-Jun-25 11:29N 35°31' E 139°46'0 0.0
2017-Jun-25 10:59N 35°31' E 139°46'0 0.0
2017-Jun-25 10:29N 35°31' E 139°46'0 0.0
2017-Jun-25 09:59N 35°31' E 139°46'0 0.0
2017-Jun-25 09:29N 35°31' E 139°46'0 0.0
2017-Jun-25 08:59N 35°31' E 139°46'0 0.0
2017-Jun-25 08:29N 35°31' E 139°46'0 0.0
2017-Jun-25 07:59N 35°31' E 139°46'0 0.0
2017-Jun-25 07:29N 35°31' E 139°46'0 0.0
2017-Jun-25 06:59N 35°31' E 139°46'0 0.0
2017-Jun-25 06:29N 35°31' E 139°46'0 0.0
2017-Jun-25 05:59N 35°31' E 139°46'3 6.8
2017-Jun-25 05:30N 35°29' E 139°43'2 4.9
2017-Jun-25 05:00N 35°27' E 139°44'3 6.0
2017-Jun-25 04:30N 35°29' E 139°47'510.3
2017-Jun-25 04:00N 35°33' E 139°51'510.6
2017-Jun-25 03:30N 35°36' E 139°56'4 7.8
2017-Jun-25 03:00N 35°40' E 139°57'1 0.1
2017-Jun-24 21:43N 35°40' E 139°56'1 7.2
2017-Jun-24 21:30N 35°39' E 139°58'4 7.9
2017-Jun-24 21:00N 35°36' E 139°56'0 0.7
2017-Jun-24 20:30N 35°36' E 139°55'0 0.0
2017-Jun-24 20:00N 35°36' E 139°55'0 0.0
2017-Jun-24 19:27N 35°36' E 139°55'0 0.0
2017-Jun-24 19:00N 35°36' E 139°55'0 0.0
2017-Jun-24 18:27N 35°36' E 139°55'0 0.0
2017-Jun-24 17:51N 35°36' E 139°55'0 0.0
2017-Jun-24 17:27N 35°36' E 139°55'0 0.0
2017-Jun-24 16:45N 35°36' E 139°55'0 0.1
2017-Jun-24 16:24N 35°36' E 139°55'0 0.1
2017-Jun-24 15:57N 35°36' E 139°55'0 0.0
2017-Jun-24 15:30N 35°36' E 139°55'0 0.0
2017-Jun-24 14:57N 35°36' E 139°55'3 2.8
2017-Jun-24 14:00N 35°34' E 139°53'510.0
2017-Jun-24 13:30N 35°30' E 139°49'5 9.8
2017-Jun-24 13:00N 35°27' E 139°45'5 9.2
2017-Jun-24 12:30N 35°23' E 139°41'1 2.5
2017-Jun-24 11:59N 35°24' E 139°40'0 0.0
2017-Jun-24 11:29N 35°24' E 139°40'0 0.0
2017-Jun-24 10:59N 35°24' E 139°40'0 0.0
2017-Jun-24 10:29N 35°24' E 139°40'0 0.0
2017-Jun-24 09:59N 35°24' E 139°40'0 0.0
2017-Jun-24 09:29N 35°24' E 139°40'0 0.0
2017-Jun-24 08:59N 35°24' E 139°40'0 0.0
2017-Jun-24 08:29N 35°24' E 139°40'0 0.0
2017-Jun-24 07:59N 35°24' E 139°40'0 0.0
2017-Jun-24 07:29N 35°24' E 139°40'0 0.0
2017-Jun-24 06:59N 35°24' E 139°40'0 0.2
2017-Jun-24 06:30N 35°24' E 139°39'3 7.0
2017-Jun-24 06:00N 35°25' E 139°44'510.2
2017-Jun-24 05:30N 35°28' E 139°49'510.2
2017-Jun-24 05:00N 35°32' E 139°53'510.4
2017-Jun-24 04:30N 35°36' E 139°57'4 8.3
2017-Jun-24 04:00N 35°40' E 139°57'0 0.1
2017-Jun-23 21:42N 35°40' E 139°57'2 7.8
2017-Jun-23 21:30N 35°39' E 139°58'3 2.5
2017-Jun-23 20:27N 35°37' E 139°58'0 0.0
2017-Jun-23 18:39N 35°37' E 139°58'0 0.1
2017-Jun-23 18:18N 35°37' E 139°58'0 0.0
2017-Jun-23 17:51N 35°37' E 139°58'0 0.0
2017-Jun-23 17:27N 35°37' E 139°58'0 0.0
2017-Jun-23 16:57N 35°37' E 139°58'0 0.0
2017-Jun-23 16:15N 35°37' E 139°58'0 0.0
2017-Jun-23 16:00N 35°37' E 139°58'0 0.0
2017-Jun-23 15:30N 35°37' E 139°58'0 0.0
2017-Jun-23 15:00N 35°37' E 139°58'0 0.0
2017-Jun-23 13:10N 35°37' E 139°58'0 0.1
2017-Jun-23 13:00N 35°37' E 139°58'4 8.4
2017-Jun-23 12:30N 35°33' E 140°00'3 4.0
2017-Jun-23 11:52N 35°31' E 140°02'0 0.0
2017-Jun-23 11:28N 35°31' E 140°02'0 0.0
2017-Jun-23 10:43N 35°31' E 140°02'0 0.0
2017-Jun-23 10:28N 35°31' E 140°02'0 0.0
2017-Jun-23 09:58N 35°31' E 140°02'0 0.0
2017-Jun-23 09:28N 35°31' E 140°02'0 0.0
2017-Jun-23 08:58N 35°31' E 140°02'0 0.0
2017-Jun-23 08:13N 35°31' E 140°02'0 0.0
2017-Jun-23 07:58N 35°31' E 140°02'0 0.0
2017-Jun-23 07:28N 35°31' E 140°02'0 0.0
2017-Jun-23 06:49N 35°31' E 140°02'0 0.0
2017-Jun-23 06:07N 35°31' E 140°02'0 1.0
2017-Jun-23 06:00N 35°31' E 140°02'5 9.8
2017-Jun-23 05:30N 35°30' E 139°56'611.1
2017-Jun-23 05:00N 35°28' E 139°50'611.1
2017-Jun-23 04:30N 35°25' E 139°45'4 8.3
2017-Jun-23 04:00N 35°24' E 139°39'0 0.2
2017-Jun-23 03:28N 35°24' E 139°40'0 0.0
2017-Jun-23 02:58N 35°24' E 139°40'0 0.0
2017-Jun-23 02:28N 35°24' E 139°40'0 0.0
2017-Jun-23 01:58N 35°24' E 139°40'0 0.0
2017-Jun-23 01:28N 35°24' E 139°40'0 0.0
2017-Jun-23 00:58N 35°24' E 139°40'0 0.0
2017-Jun-23 00:28N 35°24' E 139°40'0 0.0
2017-Jun-22 23:58N 35°24' E 139°40'0 0.0
2017-Jun-22 23:28N 35°24' E 139°40'1 1.7
2017-Jun-22 23:01N 35°24' E 139°40'1 2.3
2017-Jun-22 22:30N 35°23' E 139°40'0 0.0
2017-Jun-22 22:00N 35°23' E 139°40'0 0.0
2017-Jun-22 21:30N 35°23' E 139°40'0 0.0
2017-Jun-22 21:00N 35°23' E 139°40'0 0.0
2017-Jun-22 20:30N 35°23' E 139°40'0 0.0
2017-Jun-22 20:00N 35°23' E 139°40'0 0.0
2017-Jun-22 19:30N 35°23' E 139°40'0 0.0
2017-Jun-22 19:00N 35°23' E 139°40'0 0.0
2017-Jun-22 18:30N 35°23' E 139°40'0 0.1
2017-Jun-22 18:00N 35°23' E 139°40'0 0.1
2017-Jun-22 17:30N 35°23' E 139°40'0 0.0
2017-Jun-22 17:00N 35°23' E 139°40'0 0.0
2017-Jun-22 16:30N 35°23' E 139°40'0 0.1
2017-Jun-22 16:00N 35°23' E 139°40'0 0.1
2017-Jun-22 15:30N 35°23' E 139°40'0 0.1
2017-Jun-22 15:00N 35°23' E 139°40'0 0.1
2017-Jun-22 14:30N 35°23' E 139°40'0 0.0
2017-Jun-22 13:30N 35°23' E 139°40'0 0.0
2017-Jun-22 13:00N 35°23' E 139°40'0 0.1
2017-Jun-22 12:30N 35°23' E 139°40'0 0.0
2017-Jun-22 12:00N 35°23' E 139°40'0 0.1
2017-Jun-22 11:30N 35°23' E 139°40'4 8.7
2017-Jun-22 11:00N 35°26' E 139°44'510.4
2017-Jun-22 10:31N 35°30' E 139°48'2 3.6
2017-Jun-22 09:58N 35°31' E 139°46'0 0.0
2017-Jun-22 09:28N 35°31' E 139°46'0 0.0
2017-Jun-22 08:58N 35°31' E 139°46'0 0.0
2017-Jun-22 08:28N 35°31' E 139°46'0 0.0
2017-Jun-22 07:58N 35°31' E 139°46'0 0.0
2017-Jun-22 07:25N 35°31' E 139°46'0 0.0
2017-Jun-22 06:58N 35°31' E 139°46'0 0.0
2017-Jun-22 06:28N 35°31' E 139°46'0 0.0
2017-Jun-22 05:58N 35°31' E 139°46'0 0.0
2017-Jun-22 05:28N 35°31' E 139°46'0 0.0
2017-Jun-22 04:58N 35°31' E 139°46'0 0.0
2017-Jun-22 04:28N 35°31' E 139°46'0 0.0
2017-Jun-22 03:58N 35°31' E 139°46'1 2.4
2017-Jun-22 03:30N 35°30' E 139°45'4 7.3
2017-Jun-22 03:00N 35°27' E 139°43'3 5.9
2017-Jun-22 02:30N 35°28' E 139°47'510.0
2017-Jun-22 02:00N 35°30' E 139°52'611.2
2017-Jun-22 01:30N 35°35' E 139°56'510.6
2017-Jun-22 01:00N 35°39' E 139°59'1 1.9
2017-Jun-22 00:22N 35°41' E 139°59'0 0.0
2017-Jun-21 23:58N 35°41' E 139°59'0 0.0
2017-Jun-21 23:28N 35°41' E 139°59'0 0.0
2017-Jun-21 22:58N 35°41' E 139°59'0 0.0
2017-Jun-21 22:28N 35°41' E 139°59'0 0.0
2017-Jun-21 21:52N 35°41' E 139°59'0 0.0
2017-Jun-21 21:28N 35°41' E 139°59'0 0.0
2017-Jun-21 20:58N 35°41' E 139°59'0 0.0
2017-Jun-21 20:28N 35°41' E 139°59'0 0.0
2017-Jun-21 19:52N 35°41' E 139°59'0 0.0
2017-Jun-21 19:22N 35°41' E 139°59'0 0.0
2017-Jun-21 18:58N 35°41' E 139°59'0 0.0
2017-Jun-21 18:28N 35°41' E 139°59'0 0.0
2017-Jun-21 17:52N 35°41' E 139°59'0 0.0
2017-Jun-21 17:28N 35°41' E 139°59'0 0.0
2017-Jun-21 16:46N 35°41' E 139°59'0 0.0
2017-Jun-21 16:28N 35°41' E 139°59'0 0.0
2017-Jun-21 15:52N 35°41' E 139°59'0 0.0
2017-Jun-21 15:28N 35°41' E 139°59'0 0.0
2017-Jun-21 14:46N 35°41' E 139°59'0 0.0
2017-Jun-21 14:22N 35°41' E 139°59'0 0.0
2017-Jun-21 12:58N 35°41' E 139°59'0 0.0
2017-Jun-21 12:28N 35°41' E 139°59'0 0.0
2017-Jun-21 11:04N 35°41' E 139°59'0 0.0
2017-Jun-21 10:58N 35°41' E 139°59'0 0.0
2017-Jun-21 10:28N 35°41' E 139°59'0 0.0
2017-Jun-21 08:58N 35°41' E 139°59'0 0.0
2017-Jun-21 08:04N 35°41' E 139°59'0 0.0
2017-Jun-21 07:34N 35°41' E 139°59'0 0.0
2017-Jun-21 06:37N 35°41' E 139°59'0 0.0
2017-Jun-21 05:22N 35°41' E 139°59'0 0.4
2017-Jun-21 04:51N 35°41' E 139°59'4 9.2
2017-Jun-21 04:27N 35°37' E 139°59'3 6.8
2017-Jun-21 04:00N 35°40' E 139°57'0 0.0
2017-Jun-20 21:35N 35°40' E 139°57'1 9.1
2017-Jun-20 21:29N 35°39' E 139°58'4 6.9
2017-Jun-20 20:56N 35°36' E 139°55'0 0.5
2017-Jun-20 20:28N 35°36' E 139°55'0 0.0
2017-Jun-20 20:00N 35°36' E 139°55'0 0.0
2017-Jun-20 19:30N 35°36' E 139°55'0 0.0
2017-Jun-20 19:00N 35°36' E 139°55'0 0.0
2017-Jun-20 18:27N 35°36' E 139°55'0 0.0
2017-Jun-20 18:00N 35°36' E 139°55'0 0.0
2017-Jun-20 17:29N 35°36' E 139°55'0 0.0
2017-Jun-20 16:57N 35°36' E 139°55'0 0.0
2017-Jun-20 16:29N 35°36' E 139°55'0 0.0
2017-Jun-20 16:00N 35°36' E 139°55'0 0.0
2017-Jun-20 15:30N 35°36' E 139°55'0 0.0
2017-Jun-20 14:58N 35°36' E 139°55'0 0.0
2017-Jun-20 14:28N 35°36' E 139°55'0 0.0
2017-Jun-20 13:30N 35°36' E 139°55'4 8.1
2017-Jun-20 13:00N 35°33' E 139°52'611.1
2017-Jun-20 12:30N 35°29' E 139°48'611.1
2017-Jun-20 12:00N 35°25' E 139°43'3 5.7
2017-Jun-20 11:30N 35°24' E 139°40'0 0.1
2017-Jun-20 10:58N 35°24' E 139°40'0 0.0
2017-Jun-20 10:28N 35°24' E 139°40'0 0.0
2017-Jun-20 09:58N 35°24' E 139°40'0 0.0
2017-Jun-20 09:28N 35°24' E 139°40'0 0.0
2017-Jun-20 08:58N 35°24' E 139°40'0 0.0
2017-Jun-20 08:28N 35°24' E 139°40'0 0.0
2017-Jun-20 07:58N 35°24' E 139°40'0 0.0
2017-Jun-20 07:28N 35°24' E 139°40'0 0.0
2017-Jun-20 06:58N 35°24' E 139°40'0 0.0
2017-Jun-20 06:28N 35°24' E 139°40'0 0.0
2017-Jun-20 05:58N 35°24' E 139°40'1 1.2
2017-Jun-20 05:31N 35°24' E 139°40'4 8.6
2017-Jun-20 05:00N 35°26' E 139°45'510.4
2017-Jun-20 04:30N 35°29' E 139°50'510.2
2017-Jun-20 04:00N 35°33' E 139°54'610.5
2017-Jun-20 03:28N 35°37' E 139°58'3 0.6
2017-Jun-19 21:41N 35°40' E 139°57'2 7.5
2017-Jun-19 21:26N 35°39' E 139°58'3 8.1
2017-Jun-19 21:01N 35°36' E 139°56'0 0.3
2017-Jun-19 19:53N 35°36' E 139°55'0 0.0
2017-Jun-19 19:29N 35°36' E 139°55'0 0.0
2017-Jun-19 18:59N 35°36' E 139°55'0 0.0
2017-Jun-19 18:29N 35°36' E 139°55'0 0.1
2017-Jun-19 17:59N 35°36' E 139°55'0 0.0
2017-Jun-19 17:29N 35°36' E 139°55'0 0.0
2017-Jun-19 16:59N 35°36' E 139°55'0 0.0
2017-Jun-19 16:29N 35°36' E 139°55'0 0.0
2017-Jun-19 15:59N 35°36' E 139°55'0 0.0
2017-Jun-19 15:29N 35°36' E 139°55'0 0.0
2017-Jun-19 14:59N 35°36' E 139°55'0 0.1
2017-Jun-19 14:29N 35°36' E 139°55'0 0.0
2017-Jun-19 13:29N 35°36' E 139°55'0 0.0
2017-Jun-19 12:59N 35°36' E 139°55'0 0.0
2017-Jun-19 11:47N 35°36' E 139°55'0 0.2
2017-Jun-19 11:30N 35°36' E 139°55'4 7.3
2017-Jun-19 11:00N 35°33' E 139°58'4 1.7
2017-Jun-19 08:33N 35°31' E 140°02'0 0.0
2017-Jun-19 08:21N 35°31' E 140°02'0 0.0
2017-Jun-19 06:33N 35°31' E 140°02'0 0.0
2017-Jun-19 04:21N 35°31' E 140°02'1 2.0
2017-Jun-19 04:00N 35°31' E 140°02'1 2.9
2017-Jun-19 03:30N 35°32' E 140°01'2 3.4
2017-Jun-19 03:00N 35°34' E 140°00'4 8.5
2017-Jun-19 02:30N 35°38' E 139°59'0 0.1
2017-Jun-18 22:19N 35°38' E 139°58'3 9.8
2017-Jun-18 22:00N 35°36' E 139°55'1 0.3
2017-Jun-18 19:54N 35°36' E 139°55'0 0.0
2017-Jun-18 19:30N 35°36' E 139°55'0 0.0
2017-Jun-18 18:45N 35°36' E 139°55'0 0.0
2017-Jun-18 18:24N 35°36' E 139°55'0 0.0
2017-Jun-18 18:00N 35°36' E 139°55'0 0.0
2017-Jun-18 17:30N 35°36' E 139°55'0 0.0
2017-Jun-18 17:00N 35°36' E 139°55'0 0.0
2017-Jun-18 16:27N 35°36' E 139°55'0 0.0
2017-Jun-18 15:48N 35°36' E 139°55'0 0.0
2017-Jun-18 15:27N 35°36' E 139°55'0 0.0
2017-Jun-18 14:00N 35°36' E 139°55'0 0.1
2017-Jun-18 13:30N 35°36' E 139°55'0 0.0
2017-Jun-18 13:00N 35°36' E 139°55'0 0.0
2017-Jun-18 12:30N 35°36' E 139°55'0 0.0
2017-Jun-18 12:00N 35°36' E 139°55'0 0.0
2017-Jun-18 07:48N 35°36' E 139°55'0 0.0
2017-Jun-18 07:30N 35°36' E 139°55'0 0.1
2017-Jun-18 06:57N 35°36' E 139°55'0 0.1
2017-Jun-18 06:24N 35°36' E 139°55'0 0.1
2017-Jun-18 06:00N 35°36' E 139°55'1 2.7
2017-Jun-18 05:30N 35°35' E 139°54'5 9.3
2017-Jun-18 05:00N 35°31' E 139°50'4 8.8
2017-Jun-18 04:30N 35°28' E 139°46'5 9.3
2017-Jun-18 04:00N 35°24' E 139°42'2 4.2
2017-Jun-18 03:28N 35°24' E 139°40'0 0.0
2017-Jun-18 02:58N 35°24' E 139°40'0 0.0
2017-Jun-18 02:28N 35°24' E 139°40'0 0.0
2017-Jun-18 01:58N 35°24' E 139°40'0 0.0
2017-Jun-18 01:28N 35°24' E 139°40'0 0.0
2017-Jun-18 00:58N 35°24' E 139°40'0 0.0
2017-Jun-18 00:28N 35°24' E 139°40'0 0.0
2017-Jun-17 23:58N 35°24' E 139°40'1 1.6
2017-Jun-17 23:30N 35°24' E 139°40'1 2.8
2017-Jun-17 23:00N 35°23' E 139°41'4 7.1
2017-Jun-17 22:30N 35°27' E 139°41'2 4.6
2017-Jun-17 21:59N 35°29' E 139°39'0 0.0
2017-Jun-17 21:29N 35°29' E 139°39'0 0.0
2017-Jun-17 20:59N 35°29' E 139°39'0 0.0
2017-Jun-17 20:29N 35°29' E 139°39'0 0.0
2017-Jun-17 19:59N 35°29' E 139°39'0 0.0
2017-Jun-17 19:29N 35°29' E 139°39'0 0.0
2017-Jun-17 18:59N 35°29' E 139°39'0 0.0
2017-Jun-17 18:29N 35°29' E 139°39'0 0.0
2017-Jun-17 17:59N 35°29' E 139°39'0 0.0
2017-Jun-17 17:29N 35°29' E 139°39'0 0.0
2017-Jun-17 16:59N 35°29' E 139°39'0 0.0
2017-Jun-17 16:29N 35°29' E 139°39'0 0.0
2017-Jun-17 15:59N 35°29' E 139°39'0 0.0
2017-Jun-17 15:29N 35°29' E 139°39'0 0.0
2017-Jun-17 15:00N 35°29' E 139°39'0 0.0
2017-Jun-17 14:00N 35°29' E 139°39'0 0.0
2017-Jun-17 13:30N 35°29' E 139°39'0 0.0
2017-Jun-17 12:59N 35°29' E 139°39'0 0.0
2017-Jun-17 12:29N 35°29' E 139°39'0 0.0
2017-Jun-17 11:59N 35°29' E 139°39'  

Dump ship's entire track history